sensor_id;sensor_type;location;lat;lon;timestamp;temperature;humidity
66422;DHT22;53228;51.380;0.098;2022-11-27T00:01:32;11.10;99.90
66422;DHT22;53228;51.380;0.098;2022-11-27T00:04:00;11.10;99.90
66422;DHT22;53228;51.380;0.098;2022-11-27T00:06:29;11.10;99.90
66422;DHT22;53228;51.380;0.098;2022-11-27T00:08:58;11.10;99.90
66422;DHT22;53228;51.380;0.098;2022-11-27T00:11:27;11.10;99.90
66422;DHT22;53228;51.380;0.098;2022-11-27T00:13:55;11.10;99.90
66422;DHT22;53228;51.380;0.098;2022-11-27T00:16:24;11.10;99.90
66422;DHT22;53228;51.380;0.098;2022-11-27T00:18:53;11.20;99.90
66422;DHT22;53228;51.380;0.098;2022-11-27T00:21:24;11.20;99.90
66422;DHT22;53228;51.380;0.098;2022-11-27T00:23:53;11.20;99.90
66422;DHT22;53228;51.380;0.098;2022-11-27T00:26:21;11.20;99.90
66422;DHT22;53228;51.380;0.098;2022-11-27T00:28:50;11.20;99.90
66422;DHT22;53228;51.380;0.098;2022-11-27T00:31:27;11.20;99.90
66422;DHT22;53228;51.380;0.098;2022-11-27T00:33:58;11.20;99.90
66422;DHT22;53228;51.380;0.098;2022-11-27T00:36:28;11.20;99.90
66422;DHT22;53228;51.380;0.098;2022-11-27T00:38:56;11.50;99.90
66422;DHT22;53228;51.380;0.098;2022-11-27T00:41:26;11.20;99.90
66422;DHT22;53228;51.380;0.098;2022-11-27T00:43:54;11.20;99.90
66422;DHT22;53228;51.380;0.098;2022-11-27T00:46:27;11.20;99.90
66422;DHT22;53228;51.380;0.098;2022-11-27T00:48:57;11.20;99.90
66422;DHT22;53228;51.380;0.098;2022-11-27T00:51:25;11.20;99.90
66422;DHT22;53228;51.380;0.098;2022-11-27T00:53:54;11.20;99.90
66422;DHT22;53228;51.380;0.098;2022-11-27T00:56:24;11.10;99.90
66422;DHT22;53228;51.380;0.098;2022-11-27T00:58:54;11.20;99.90
66422;DHT22;53228;51.380;0.098;2022-11-27T01:01:25;10.30;99.90
66422;DHT22;53228;51.380;0.098;2022-11-27T01:03:57;11.20;99.90
66422;DHT22;53228;51.380;0.098;2022-11-27T01:06:26;11.20;99.90
66422;DHT22;53228;51.380;0.098;2022-11-27T01:08:54;11.20;99.90
66422;DHT22;53228;51.380;0.098;2022-11-27T01:11:28;11.30;99.90
66422;DHT22;53228;51.380;0.098;2022-11-27T01:13:58;11.20;99.90
66422;DHT22;53228;51.380;0.098;2022-11-27T01:16:30;11.20;99.90
66422;DHT22;53228;51.380;0.098;2022-11-27T01:18:59;11.20;99.90
66422;DHT22;53228;51.380;0.098;2022-11-27T01:21:30;11.20;99.90
66422;DHT22;53228;51.380;0.098;2022-11-27T01:23:59;11.20;99.90
66422;DHT22;53228;51.380;0.098;2022-11-27T01:26:27;11.20;99.90
66422;DHT22;53228;51.380;0.098;2022-11-27T01:28:57;11.20;99.90
66422;DHT22;53228;51.380;0.098;2022-11-27T01:31:27;11.20;99.90
66422;DHT22;53228;51.380;0.098;2022-11-27T01:33:59;12.00;99.90
66422;DHT22;53228;51.380;0.098;2022-11-27T01:36:28;11.20;99.90
66422;DHT22;53228;51.380;0.098;2022-11-27T01:38:56;11.20;99.90
66422;DHT22;53228;51.380;0.098;2022-11-27T01:41:36;11.30;99.90
66422;DHT22;53228;51.380;0.098;2022-11-27T01:52:03;11.30;99.90
66422;DHT22;53228;51.380;0.098;2022-11-27T01:54:37;11.20;99.90
66422;DHT22;53228;51.380;0.098;2022-11-27T01:57:14;11.20;99.90
66422;DHT22;53228;51.380;0.098;2022-11-27T01:59:46;11.20;99.90
66422;DHT22;53228;51.380;0.098;2022-11-27T02:02:14;11.20;99.90
66422;DHT22;53228;51.380;0.098;2022-11-27T02:04:42;11.20;99.90
66422;DHT22;53228;51.380;0.098;2022-11-27T02:07:10;11.20;99.90
66422;DHT22;53228;51.380;0.098;2022-11-27T02:09:38;11.20;99.90
66422;DHT22;53228;51.380;0.098;2022-11-27T02:12:31;11.20;99.90
66422;DHT22;53228;51.380;0.098;2022-11-27T02:20:36;11.20;99.90
66422;DHT22;53228;51.380;0.098;2022-11-27T02:37:00;11.10;99.90
66422;DHT22;53228;51.380;0.098;2022-11-27T02:39:37;11.10;99.90
66422;DHT22;53228;51.380;0.098;2022-11-27T02:42:13;11.10;99.90
66422;DHT22;53228;51.380;0.098;2022-11-27T02:44:56;11.00;99.90
66422;DHT22;53228;51.380;0.098;2022-11-27T02:47:27;11.00;99.90
66422;DHT22;53228;51.380;0.098;2022-11-27T02:49:56;11.00;99.90
66422;DHT22;53228;51.380;0.098;2022-11-27T02:52:25;11.00;99.90
66422;DHT22;53228;51.380;0.098;2022-11-27T02:54:56;11.00;99.90
66422;DHT22;53228;51.380;0.098;2022-11-27T02:57:26;11.00;99.90
66422;DHT22;53228;51.380;0.098;2022-11-27T02:59:55;11.00;99.90
66422;DHT22;53228;51.380;0.098;2022-11-27T03:02:33;11.00;99.90
66422;DHT22;53228;51.380;0.098;2022-11-27T03:05:04;11.00;99.90
66422;DHT22;53228;51.380;0.098;2022-11-27T03:07:42;11.00;99.90
66422;DHT22;53228;51.380;0.098;2022-11-27T03:10:17;10.90;99.90
66422;DHT22;53228;51.380;0.098;2022-11-27T03:12:47;10.80;99.90
66422;DHT22;53228;51.380;0.098;2022-11-27T03:15:16;10.90;99.90
66422;DHT22;53228;51.380;0.098;2022-11-27T03:22:48;10.80;99.90
66422;DHT22;53228;51.380;0.098;2022-11-27T03:25:16;10.80;99.90
66422;DHT22;53228;51.380;0.098;2022-11-27T03:27:59;10.70;99.90
66422;DHT22;53228;51.380;0.098;2022-11-27T03:30:28;10.80;99.90
66422;DHT22;53228;51.380;0.098;2022-11-27T03:32:55;10.60;99.90
66422;DHT22;53228;51.380;0.098;2022-11-27T03:35:25;10.70;99.90
66422;DHT22;53228;51.380;0.098;2022-11-27T03:37:53;10.70;99.90
66422;DHT22;53228;51.380;0.098;2022-11-27T03:43:26;10.60;99.90
66422;DHT22;53228;51.380;0.098;2022-11-27T03:51:19;10.50;99.90
66422;DHT22;53228;51.380;0.098;2022-11-27T03:57:00;10.40;99.90
66422;DHT22;53228;51.380;0.098;2022-11-27T03:59:36;10.40;99.90
66422;DHT22;53228;51.380;0.098;2022-11-27T04:02:13;10.30;99.90
66422;DHT22;53228;51.380;0.098;2022-11-27T04:04:41;10.30;99.90
66422;DHT22;53228;51.380;0.098;2022-11-27T04:07:15;10.20;99.90
66422;DHT22;53228;51.380;0.098;2022-11-27T04:09:44;10.20;99.90
66422;DHT22;53228;51.380;0.098;2022-11-27T04:12:12;10.20;99.90
66422;DHT22;53228;51.380;0.098;2022-11-27T04:14:40;10.20;99.90
66422;DHT22;53228;51.380;0.098;2022-11-27T04:17:08;10.80;99.90
66422;DHT22;53228;51.380;0.098;2022-11-27T04:19:36;10.10;99.90
66422;DHT22;53228;51.380;0.098;2022-11-27T04:22:04;10.20;99.90
66422;DHT22;53228;51.380;0.098;2022-11-27T04:24:32;10.30;99.90
66422;DHT22;53228;51.380;0.098;2022-11-27T04:26:59;10.20;99.90
66422;DHT22;53228;51.380;0.098;2022-11-27T04:29:27;10.20;99.90
66422;DHT22;53228;51.380;0.098;2022-11-27T04:31:55;10.20;99.90
66422;DHT22;53228;51.380;0.098;2022-11-27T04:34:22;10.20;99.90
66422;DHT22;53228;51.380;0.098;2022-11-27T04:36:50;10.10;99.90
66422;DHT22;53228;51.380;0.098;2022-11-27T04:39:18;10.00;99.90
66422;DHT22;53228;51.380;0.098;2022-11-27T04:41:46;10.10;99.90
66422;DHT22;53228;51.380;0.098;2022-11-27T04:44:14;10.00;99.90
66422;DHT22;53228;51.380;0.098;2022-11-27T04:46:42;10.00;99.90
66422;DHT22;53228;51.380;0.098;2022-11-27T04:49:10;10.00;99.90
66422;DHT22;53228;51.380;0.098;2022-11-27T04:51:38;10.00;99.90
66422;DHT22;53228;51.380;0.098;2022-11-27T04:54:06;10.00;99.90
66422;DHT22;53228;51.380;0.098;2022-11-27T04:56:34;10.00;99.90
66422;DHT22;53228;51.380;0.098;2022-11-27T04:59:02;9.80;99.90
66422;DHT22;53228;51.380;0.098;2022-11-27T05:01:30;9.90;99.90
66422;DHT22;53228;51.380;0.098;2022-11-27T05:03:58;9.90;99.90
66422;DHT22;53228;51.380;0.098;2022-11-27T05:06:26;9.90;99.90
66422;DHT22;53228;51.380;0.098;2022-11-27T05:08:53;9.90;99.90
66422;DHT22;53228;51.380;0.098;2022-11-27T05:11:29;9.90;99.90
66422;DHT22;53228;51.380;0.098;2022-11-27T05:13:58;9.90;99.90
66422;DHT22;53228;51.380;0.098;2022-11-27T05:16:42;9.90;99.90
66422;DHT22;53228;51.380;0.098;2022-11-27T05:19:11;9.90;99.90
66422;DHT22;53228;51.380;0.098;2022-11-27T05:21:39;9.80;99.90
66422;DHT22;53228;51.380;0.098;2022-11-27T05:24:07;9.80;99.90
66422;DHT22;53228;51.380;0.098;2022-11-27T05:26:36;9.80;99.90
66422;DHT22;53228;51.380;0.098;2022-11-27T05:29:05;9.80;99.90
66422;DHT22;53228;51.380;0.098;2022-11-27T05:31:34;9.70;99.90
66422;DHT22;53228;51.380;0.098;2022-11-27T05:34:02;9.70;99.90
66422;DHT22;53228;51.380;0.098;2022-11-27T05:36:31;9.70;99.90
66422;DHT22;53228;51.380;0.098;2022-11-27T05:39:00;9.70;99.90
66422;DHT22;53228;51.380;0.098;2022-11-27T05:41:29;9.70;99.90
66422;DHT22;53228;51.380;0.098;2022-11-27T05:43:57;9.60;99.90
66422;DHT22;53228;51.380;0.098;2022-11-27T05:46:25;9.60;99.90
66422;DHT22;53228;51.380;0.098;2022-11-27T05:48:53;9.60;99.90
66422;DHT22;53228;51.380;0.098;2022-11-27T05:51:21;9.60;99.90
66422;DHT22;53228;51.380;0.098;2022-11-27T05:53:49;9.60;99.90
66422;DHT22;53228;51.380;0.098;2022-11-27T05:56:17;9.60;99.90
66422;DHT22;53228;51.380;0.098;2022-11-27T05:58:46;9.70;99.90
66422;DHT22;53228;51.380;0.098;2022-11-27T06:01:16;9.60;99.90
66422;DHT22;53228;51.380;0.098;2022-11-27T06:03:45;9.60;99.90
66422;DHT22;53228;51.380;0.098;2022-11-27T06:06:15;9.60;99.90
66422;DHT22;53228;51.380;0.098;2022-11-27T06:08:44;9.60;99.90
66422;DHT22;53228;51.380;0.098;2022-11-27T06:11:17;9.60;99.90
66422;DHT22;53228;51.380;0.098;2022-11-27T06:13:46;9.60;99.90
66422;DHT22;53228;51.380;0.098;2022-11-27T06:16:20;9.60;99.90
66422;DHT22;53228;51.380;0.098;2022-11-27T06:18:53;9.50;99.90
66422;DHT22;53228;51.380;0.098;2022-11-27T06:21:22;9.50;99.90
66422;DHT22;53228;51.380;0.098;2022-11-27T06:23:55;9.50;99.90
66422;DHT22;53228;51.380;0.098;2022-11-27T06:26:25;9.50;99.90
66422;DHT22;53228;51.380;0.098;2022-11-27T06:28:55;9.40;99.90
66422;DHT22;53228;51.380;0.098;2022-11-27T06:31:26;9.40;99.90
66422;DHT22;53228;51.380;0.098;2022-11-27T06:33:55;9.30;99.90
66422;DHT22;53228;51.380;0.098;2022-11-27T06:36:27;9.30;99.90
66422;DHT22;53228;51.380;0.098;2022-11-27T06:38:55;9.30;99.90
66422;DHT22;53228;51.380;0.098;2022-11-27T06:41:23;9.20;99.90
66422;DHT22;53228;51.380;0.098;2022-11-27T06:43:54;9.20;99.90
66422;DHT22;53228;51.380;0.098;2022-11-27T06:46:22;9.20;99.90
66422;DHT22;53228;51.380;0.098;2022-11-27T06:48:52;9.20;99.90
66422;DHT22;53228;51.380;0.098;2022-11-27T06:51:25;9.20;99.90
66422;DHT22;53228;51.380;0.098;2022-11-27T06:53:53;9.20;99.90
66422;DHT22;53228;51.380;0.098;2022-11-27T06:56:23;9.50;99.90
66422;DHT22;53228;51.380;0.098;2022-11-27T06:58:54;9.10;99.90
66422;DHT22;53228;51.380;0.098;2022-11-27T07:01:24;9.10;99.90
66422;DHT22;53228;51.380;0.098;2022-11-27T07:03:52;9.00;99.90
66422;DHT22;53228;51.380;0.098;2022-11-27T07:06:22;9.00;99.90
66422;DHT22;53228;51.380;0.098;2022-11-27T07:08:50;9.00;99.90
66422;DHT22;53228;51.380;0.098;2022-11-27T07:11:21;8.90;99.90
66422;DHT22;53228;51.380;0.098;2022-11-27T07:13:49;8.90;99.90
66422;DHT22;53228;51.380;0.098;2022-11-27T07:16:17;8.90;99.90
66422;DHT22;53228;51.380;0.098;2022-11-27T07:18:51;8.80;99.90
66422;DHT22;53228;51.380;0.098;2022-11-27T07:21:19;8.90;99.90
66422;DHT22;53228;51.380;0.098;2022-11-27T07:23:47;9.40;99.90
66422;DHT22;53228;51.380;0.098;2022-11-27T07:26:20;8.80;99.90
66422;DHT22;53228;51.380;0.098;2022-11-27T07:28:48;8.80;99.90
66422;DHT22;53228;51.380;0.098;2022-11-27T07:31:19;8.80;99.90
66422;DHT22;53228;51.380;0.098;2022-11-27T07:33:47;8.80;99.90
66422;DHT22;53228;51.380;0.098;2022-11-27T07:36:18;8.70;99.90
66422;DHT22;53228;51.380;0.098;2022-11-27T07:38:47;8.90;99.90
66422;DHT22;53228;51.380;0.098;2022-11-27T07:41:15;8.80;99.90
66422;DHT22;53228;51.380;0.098;2022-11-27T07:43:44;8.90;99.90
66422;DHT22;53228;51.380;0.098;2022-11-27T07:48:40;9.00;99.90
66422;DHT22;53228;51.380;0.098;2022-11-27T07:51:10;9.00;99.90
66422;DHT22;53228;51.380;0.098;2022-11-27T07:53:39;9.00;99.90
66422;DHT22;53228;51.380;0.098;2022-11-27T07:56:12;9.00;99.90
66422;DHT22;53228;51.380;0.098;2022-11-27T07:58:40;9.10;99.90
66422;DHT22;53228;51.380;0.098;2022-11-27T08:01:12;9.10;99.90
66422;DHT22;53228;51.380;0.098;2022-11-27T08:03:40;9.10;99.90
66422;DHT22;53228;51.380;0.098;2022-11-27T08:06:19;10.10;99.90
66422;DHT22;53228;51.380;0.098;2022-11-27T08:08:47;9.20;99.90
66422;DHT22;53228;51.380;0.098;2022-11-27T08:11:26;9.30;99.90
66422;DHT22;53228;51.380;0.098;2022-11-27T08:13:57;9.30;99.90
66422;DHT22;53228;51.380;0.098;2022-11-27T08:16:26;9.30;99.90
66422;DHT22;53228;51.380;0.098;2022-11-27T08:18:54;9.30;99.90
66422;DHT22;53228;51.380;0.098;2022-11-27T08:21:22;9.30;99.90
66422;DHT22;53228;51.380;0.098;2022-11-27T08:23:50;9.30;99.90
66422;DHT22;53228;51.380;0.098;2022-11-27T08:26:18;9.30;99.90
66422;DHT22;53228;51.380;0.098;2022-11-27T08:28:47;9.30;99.90
66422;DHT22;53228;51.380;0.098;2022-11-27T08:31:15;9.30;99.90
66422;DHT22;53228;51.380;0.098;2022-11-27T08:33:42;9.30;99.90
66422;DHT22;53228;51.380;0.098;2022-11-27T08:36:10;9.30;99.90
66422;DHT22;53228;51.380;0.098;2022-11-27T08:38:44;9.30;99.90
66422;DHT22;53228;51.380;0.098;2022-11-27T08:41:14;9.30;99.90
66422;DHT22;53228;51.380;0.098;2022-11-27T08:43:43;9.30;99.90
66422;DHT22;53228;51.380;0.098;2022-11-27T08:46:11;9.30;99.90
66422;DHT22;53228;51.380;0.098;2022-11-27T08:48:39;9.20;99.90
66422;DHT22;53228;51.380;0.098;2022-11-27T08:51:11;9.10;99.90
66422;DHT22;53228;51.380;0.098;2022-11-27T08:54:00;9.20;99.90
66422;DHT22;53228;51.380;0.098;2022-11-27T08:56:28;9.20;99.90
66422;DHT22;53228;51.380;0.098;2022-11-27T08:58:57;9.20;99.90
66422;DHT22;53228;51.380;0.098;2022-11-27T09:01:27;9.20;99.90
66422;DHT22;53228;51.380;0.098;2022-11-27T09:06:30;9.20;99.90
66422;DHT22;53228;51.380;0.098;2022-11-27T09:08:59;9.20;99.90
66422;DHT22;53228;51.380;0.098;2022-11-27T09:11:32;9.20;99.90
66422;DHT22;53228;51.380;0.098;2022-11-27T09:14:01;9.20;99.90
66422;DHT22;53228;51.380;0.098;2022-11-27T09:16:29;9.20;99.90
66422;DHT22;53228;51.380;0.098;2022-11-27T09:21:27;9.30;99.90
66422;DHT22;53228;51.380;0.098;2022-11-27T09:23:57;9.30;99.90
66422;DHT22;53228;51.380;0.098;2022-11-27T09:26:25;9.40;99.90
66422;DHT22;53228;51.380;0.098;2022-11-27T09:28:54;9.40;99.90
66422;DHT22;53228;51.380;0.098;2022-11-27T09:31:24;9.40;99.90
66422;DHT22;53228;51.380;0.098;2022-11-27T09:33:53;9.40;99.90
66422;DHT22;53228;51.380;0.098;2022-11-27T09:36:23;9.40;99.90
66422;DHT22;53228;51.380;0.098;2022-11-27T09:38:52;9.50;99.90
66422;DHT22;53228;51.380;0.098;2022-11-27T09:44:42;9.60;99.90
66422;DHT22;53228;51.380;0.098;2022-11-27T09:47:20;9.60;99.90
66422;DHT22;53228;51.380;0.098;2022-11-27T09:49:56;9.60;99.90
66422;DHT22;53228;51.380;0.098;2022-11-27T09:55:14;9.70;99.90
66422;DHT22;53228;51.380;0.098;2022-11-27T10:00:46;9.80;99.90
66422;DHT22;53228;51.380;0.098;2022-11-27T10:03:17;9.80;99.90
66422;DHT22;53228;51.380;0.098;2022-11-27T10:06:10;9.90;99.90
66422;DHT22;53228;51.380;0.098;2022-11-27T10:31:11;10.30;99.90
66422;DHT22;53228;51.380;0.098;2022-11-27T10:33:55;10.40;99.90
66422;DHT22;53228;51.380;0.098;2022-11-27T10:38:59;10.40;99.90
66422;DHT22;53228;51.380;0.098;2022-11-27T10:41:33;10.40;99.90
66422;DHT22;53228;51.380;0.098;2022-11-27T10:44:38;10.50;99.90
66422;DHT22;53228;51.380;0.098;2022-11-27T10:47:11;10.50;99.90
66422;DHT22;53228;51.380;0.098;2022-11-27T10:49:40;10.50;99.90
66422;DHT22;53228;51.380;0.098;2022-11-27T10:52:12;10.60;99.90
66422;DHT22;53228;51.380;0.098;2022-11-27T10:54:40;10.60;99.90
66422;DHT22;53228;51.380;0.098;2022-11-27T10:57:31;10.70;99.90
66422;DHT22;53228;51.380;0.098;2022-11-27T11:02:47;10.70;99.90
66422;DHT22;53228;51.380;0.098;2022-11-27T11:05:21;10.70;99.90
66422;DHT22;53228;51.380;0.098;2022-11-27T11:08:18;10.70;99.90
66422;DHT22;53228;51.380;0.098;2022-11-27T11:10:56;10.70;99.90
66422;DHT22;53228;51.380;0.098;2022-11-27T11:13:31;10.70;99.90
66422;DHT22;53228;51.380;0.098;2022-11-27T11:16:03;10.70;99.90
66422;DHT22;53228;51.380;0.098;2022-11-27T11:18:40;10.70;99.90
66422;DHT22;53228;51.380;0.098;2022-11-27T11:21:15;10.70;99.90
66422;DHT22;53228;51.380;0.098;2022-11-27T11:28:59;10.80;99.90
66422;DHT22;53228;51.380;0.098;2022-11-27T11:31:37;10.80;99.90
66422;DHT22;53228;51.380;0.098;2022-11-27T11:39:26;11.00;99.90
66422;DHT22;53228;51.380;0.098;2022-11-27T11:41:56;11.00;99.90
66422;DHT22;53228;51.380;0.098;2022-11-27T11:44:34;11.00;99.90
66422;DHT22;53228;51.380;0.098;2022-11-27T11:47:02;11.10;99.90
66422;DHT22;53228;51.380;0.098;2022-11-27T11:49:32;11.10;99.90
66422;DHT22;53228;51.380;0.098;2022-11-27T11:55:21;11.30;99.90
66422;DHT22;53228;51.380;0.098;2022-11-27T12:00:48;11.40;99.90
66422;DHT22;53228;51.380;0.098;2022-11-27T12:09:17;11.30;99.90
66422;DHT22;53228;51.380;0.098;2022-11-27T12:11:59;11.30;99.90
66422;DHT22;53228;51.380;0.098;2022-11-27T12:15:08;11.30;99.90
66422;DHT22;53228;51.380;0.098;2022-11-27T12:31:07;11.30;99.90
66422;DHT22;53228;51.380;0.098;2022-11-27T12:39:09;11.30;99.90
66422;DHT22;53228;51.380;0.098;2022-11-27T12:44:42;11.30;99.90
66422;DHT22;53228;51.380;0.098;2022-11-27T12:49:58;11.20;99.90
66422;DHT22;53228;51.380;0.098;2022-11-27T12:52:47;11.20;99.90
66422;DHT22;53228;51.380;0.098;2022-11-27T12:55:21;11.20;99.90
66422;DHT22;53228;51.380;0.098;2022-11-27T12:58:04;11.20;99.90
66422;DHT22;53228;51.380;0.098;2022-11-27T13:00:36;11.20;99.90
66422;DHT22;53228;51.380;0.098;2022-11-27T13:06:19;11.20;99.90
66422;DHT22;53228;51.380;0.098;2022-11-27T13:08:46;11.20;99.90
66422;DHT22;53228;51.380;0.098;2022-11-27T13:11:24;11.20;99.90
66422;DHT22;53228;51.380;0.098;2022-11-27T13:16:37;11.10;99.90
66422;DHT22;53228;51.380;0.098;2022-11-27T13:19:34;11.10;99.90
66422;DHT22;53228;51.380;0.098;2022-11-27T13:22:03;11.10;99.90
66422;DHT22;53228;51.380;0.098;2022-11-27T13:24:32;11.00;99.90
66422;DHT22;53228;51.380;0.098;2022-11-27T13:27:03;11.00;99.90
66422;DHT22;53228;51.380;0.098;2022-11-27T13:29:44;11.00;99.90
66422;DHT22;53228;51.380;0.098;2022-11-27T13:32:55;11.00;99.90
66422;DHT22;53228;51.380;0.098;2022-11-27T13:35:30;11.00;99.90
66422;DHT22;53228;51.380;0.098;2022-11-27T13:38:24;11.00;99.90
66422;DHT22;53228;51.380;0.098;2022-11-27T13:40:54;11.00;99.90
66422;DHT22;53228;51.380;0.098;2022-11-27T13:43:51;11.00;99.90
66422;DHT22;53228;51.380;0.098;2022-11-27T13:48:53;10.90;99.90
66422;DHT22;53228;51.380;0.098;2022-11-27T13:51:28;10.90;99.90
66422;DHT22;53228;51.380;0.098;2022-11-27T13:54:16;10.90;99.90
66422;DHT22;53228;51.380;0.098;2022-11-27T13:56:52;10.90;99.90
66422;DHT22;53228;51.380;0.098;2022-11-27T13:59:24;10.80;99.90
66422;DHT22;53228;51.380;0.098;2022-11-27T14:02:00;10.80;99.90
66422;DHT22;53228;51.380;0.098;2022-11-27T14:04:30;10.80;99.90
66422;DHT22;53228;51.380;0.098;2022-11-27T14:07:07;10.80;99.90
66422;DHT22;53228;51.380;0.098;2022-11-27T14:09:46;10.80;99.90
66422;DHT22;53228;51.380;0.098;2022-11-27T14:12:30;10.70;99.90
66422;DHT22;53228;51.380;0.098;2022-11-27T14:17:44;10.60;99.90
66422;DHT22;53228;51.380;0.098;2022-11-27T14:22:49;10.60;99.90
66422;DHT22;53228;51.380;0.098;2022-11-27T14:28:15;10.50;99.90
66422;DHT22;53228;51.380;0.098;2022-11-27T14:30:53;10.50;99.90
66422;DHT22;53228;51.380;0.098;2022-11-27T14:35:59;10.40;99.90
66422;DHT22;53228;51.380;0.098;2022-11-27T14:38:29;10.40;99.90
66422;DHT22;53228;51.380;0.098;2022-11-27T14:41:15;10.30;99.90
66422;DHT22;53228;51.380;0.098;2022-11-27T14:43:43;10.30;99.90
66422;DHT22;53228;51.380;0.098;2022-11-27T14:46:19;10.30;99.90
66422;DHT22;53228;51.380;0.098;2022-11-27T14:48:56;10.30;99.90
66422;DHT22;53228;51.380;0.098;2022-11-27T14:51:29;10.20;99.90
66422;DHT22;53228;51.380;0.098;2022-11-27T14:54:02;10.20;99.90
66422;DHT22;53228;51.380;0.098;2022-11-27T14:56:33;10.10;99.90
66422;DHT22;53228;51.380;0.098;2022-11-27T14:59:04;10.10;99.90
66422;DHT22;53228;51.380;0.098;2022-11-27T15:01:35;10.10;99.90
66422;DHT22;53228;51.380;0.098;2022-11-27T15:04:05;10.10;99.90
66422;DHT22;53228;51.380;0.098;2022-11-27T15:06:39;10.00;99.90
66422;DHT22;53228;51.380;0.098;2022-11-27T15:09:20;10.00;99.90
66422;DHT22;53228;51.380;0.098;2022-11-27T15:12:15;10.00;99.90
66422;DHT22;53228;51.380;0.098;2022-11-27T15:15:19;9.90;99.90
66422;DHT22;53228;51.380;0.098;2022-11-27T15:17:54;9.90;99.90
66422;DHT22;53228;51.380;0.098;2022-11-27T15:20:40;9.80;99.90
66422;DHT22;53228;51.380;0.098;2022-11-27T15:23:29;9.50;99.90
66422;DHT22;53228;51.380;0.098;2022-11-27T15:26:11;9.70;99.90
66422;DHT22;53228;51.380;0.098;2022-11-27T15:28:54;9.70;99.90
66422;DHT22;53228;51.380;0.098;2022-11-27T15:31:32;9.60;99.90
66422;DHT22;53228;51.380;0.098;2022-11-27T15:36:42;9.50;99.90
66422;DHT22;53228;51.380;0.098;2022-11-27T15:39:18;9.40;99.90
66422;DHT22;53228;51.380;0.098;2022-11-27T15:41:52;9.40;99.90
66422;DHT22;53228;51.380;0.098;2022-11-27T15:44:21;9.30;99.90
66422;DHT22;53228;51.380;0.098;2022-11-27T15:46:55;9.30;99.90
66422;DHT22;53228;51.380;0.098;2022-11-27T15:49:23;9.30;99.90
66422;DHT22;53228;51.380;0.098;2022-11-27T15:51:51;9.20;99.90
66422;DHT22;53228;51.380;0.098;2022-11-27T15:54:19;9.20;99.90
66422;DHT22;53228;51.380;0.098;2022-11-27T15:56:47;9.10;99.90
66422;DHT22;53228;51.380;0.098;2022-11-27T15:59:16;9.10;99.90
66422;DHT22;53228;51.380;0.098;2022-11-27T16:01:46;9.20;99.90
66422;DHT22;53228;51.380;0.098;2022-11-27T16:04:16;9.00;99.90
66422;DHT22;53228;51.380;0.098;2022-11-27T16:06:44;9.00;99.90
66422;DHT22;53228;51.380;0.098;2022-11-27T16:09:12;9.00;99.90
66422;DHT22;53228;51.380;0.098;2022-11-27T16:11:40;9.00;99.90
66422;DHT22;53228;51.380;0.098;2022-11-27T16:14:07;9.00;99.90
66422;DHT22;53228;51.380;0.098;2022-11-27T16:16:35;9.00;99.90
66422;DHT22;53228;51.380;0.098;2022-11-27T16:19:05;9.00;99.90
66422;DHT22;53228;51.380;0.098;2022-11-27T16:21:34;8.90;99.90
66422;DHT22;53228;51.380;0.098;2022-11-27T16:24:11;8.90;99.90
66422;DHT22;53228;51.380;0.098;2022-11-27T16:26:40;8.90;99.90
66422;DHT22;53228;51.380;0.098;2022-11-27T16:29:08;8.80;99.90
66422;DHT22;53228;51.380;0.098;2022-11-27T16:31:36;8.80;99.90
66422;DHT22;53228;51.380;0.098;2022-11-27T16:34:04;8.80;99.90
66422;DHT22;53228;51.380;0.098;2022-11-27T16:36:33;8.70;99.90
66422;DHT22;53228;51.380;0.098;2022-11-27T16:39:02;8.80;99.90
66422;DHT22;53228;51.380;0.098;2022-11-27T16:41:29;9.70;99.90
66422;DHT22;53228;51.380;0.098;2022-11-27T16:43:57;8.80;99.90
66422;DHT22;53228;51.380;0.098;2022-11-27T16:46:27;8.80;99.90
66422;DHT22;53228;51.380;0.098;2022-11-27T16:48:56;8.80;99.90
66422;DHT22;53228;51.380;0.098;2022-11-27T16:51:28;8.80;99.90
66422;DHT22;53228;51.380;0.098;2022-11-27T16:54:00;8.80;99.90
66422;DHT22;53228;51.380;0.098;2022-11-27T16:56:29;8.80;99.90
66422;DHT22;53228;51.380;0.098;2022-11-27T16:58:57;8.80;99.90
66422;DHT22;53228;51.380;0.098;2022-11-27T17:01:33;8.70;99.90
66422;DHT22;53228;51.380;0.098;2022-11-27T17:04:04;8.70;99.90
66422;DHT22;53228;51.380;0.098;2022-11-27T17:06:34;8.60;99.90
66422;DHT22;53228;51.380;0.098;2022-11-27T17:09:04;8.60;99.90
66422;DHT22;53228;51.380;0.098;2022-11-27T17:11:37;8.60;99.90
66422;DHT22;53228;51.380;0.098;2022-11-27T17:14:08;8.50;99.90
66422;DHT22;53228;51.380;0.098;2022-11-27T17:16:37;8.50;99.90
66422;DHT22;53228;51.380;0.098;2022-11-27T17:19:13;8.40;99.90
66422;DHT22;53228;51.380;0.098;2022-11-27T17:21:42;8.40;99.90
66422;DHT22;53228;51.380;0.098;2022-11-27T17:24:12;8.40;99.90
66422;DHT22;53228;51.380;0.098;2022-11-27T17:26:44;8.40;99.90
66422;DHT22;53228;51.380;0.098;2022-11-27T17:29:14;8.40;99.90
66422;DHT22;53228;51.380;0.098;2022-11-27T17:31:43;8.30;99.90
66422;DHT22;53228;51.380;0.098;2022-11-27T17:34:13;8.30;99.90
66422;DHT22;53228;51.380;0.098;2022-11-27T17:36:43;8.30;99.90
66422;DHT22;53228;51.380;0.098;2022-11-27T17:39:14;8.30;99.90
66422;DHT22;53228;51.380;0.098;2022-11-27T17:41:42;8.30;99.90
66422;DHT22;53228;51.380;0.098;2022-11-27T17:44:12;8.40;99.90
66422;DHT22;53228;51.380;0.098;2022-11-27T17:46:40;8.40;99.90
66422;DHT22;53228;51.380;0.098;2022-11-27T17:49:09;8.40;99.90
66422;DHT22;53228;51.380;0.098;2022-11-27T17:51:37;8.30;99.90
66422;DHT22;53228;51.380;0.098;2022-11-27T17:54:05;8.50;99.90
66422;DHT22;53228;51.380;0.098;2022-11-27T17:56:34;8.50;99.90
66422;DHT22;53228;51.380;0.098;2022-11-27T17:59:02;8.40;99.90
66422;DHT22;53228;51.380;0.098;2022-11-27T18:01:32;8.50;99.90
66422;DHT22;53228;51.380;0.098;2022-11-27T18:04:01;8.50;99.90
66422;DHT22;53228;51.380;0.098;2022-11-27T18:06:31;8.50;99.90
66422;DHT22;53228;51.380;0.098;2022-11-27T18:08:59;8.60;99.90
66422;DHT22;53228;51.380;0.098;2022-11-27T18:11:30;8.50;99.90
66422;DHT22;53228;51.380;0.098;2022-11-27T18:14:01;8.50;99.90
66422;DHT22;53228;51.380;0.098;2022-11-27T18:16:36;8.60;99.90
66422;DHT22;53228;51.380;0.098;2022-11-27T18:19:06;8.60;99.90
66422;DHT22;53228;51.380;0.098;2022-11-27T18:21:35;8.60;99.90
66422;DHT22;53228;51.380;0.098;2022-11-27T18:24:05;8.50;99.90
66422;DHT22;53228;51.380;0.098;2022-11-27T18:26:54;8.60;99.90
66422;DHT22;53228;51.380;0.098;2022-11-27T18:29:40;8.50;99.90
66422;DHT22;53228;51.380;0.098;2022-11-27T18:32:09;8.50;99.90
66422;DHT22;53228;51.380;0.098;2022-11-27T18:34:38;8.50;99.90
66422;DHT22;53228;51.380;0.098;2022-11-27T18:37:06;8.50;99.90
66422;DHT22;53228;51.380;0.098;2022-11-27T18:39:34;8.50;99.90
66422;DHT22;53228;51.380;0.098;2022-11-27T18:42:03;8.50;99.90
66422;DHT22;53228;51.380;0.098;2022-11-27T18:44:33;8.40;99.90
66422;DHT22;53228;51.380;0.098;2022-11-27T18:47:09;8.40;99.90